createdAt,value
2022-12-04T00:01:15.612Z,3.77
2022-12-04T00:04:00.494Z,3.84
2022-12-04T00:06:43.467Z,3.84
2022-12-04T00:09:26.373Z,3.82
2022-12-04T00:12:09.405Z,3.85
2022-12-04T00:15:24.025Z,3.85
2022-12-04T00:17:56.528Z,3.86
2022-12-04T00:20:40.339Z,3.80
2022-12-04T00:23:23.268Z,3.83
2022-12-04T00:26:07.799Z,3.84
2022-12-04T00:28:50.804Z,3.84
2022-12-04T00:31:35.368Z,3.85
2022-12-04T00:34:18.598Z,3.93
2022-12-04T00:37:01.443Z,3.98
2022-12-04T00:39:44.649Z,4.12
2022-12-04T00:42:27.553Z,4.17
2022-12-04T00:45:11.020Z,4.13
2022-12-04T00:47:55.312Z,4.15
2022-12-04T00:50:38.801Z,4.13
2022-12-04T00:53:22.371Z,4.07
2022-12-04T00:56:06.786Z,4.02
2022-12-04T00:58:52.249Z,4.02
2022-12-04T01:01:35.163Z,3.95
2022-12-04T01:04:19.431Z,3.98
2022-12-04T01:07:05.135Z,4.02
2022-12-04T01:09:48.374Z,3.95
2022-12-04T01:12:31.330Z,3.97
2022-12-04T01:15:14.355Z,4.04
2022-12-04T01:17:57.417Z,4.06
2022-12-04T01:20:42.051Z,4.07
2022-12-04T01:23:24.929Z,4.18
2022-12-04T01:26:08.117Z,4.21
2022-12-04T01:28:50.989Z,4.21
2022-12-04T01:31:34.414Z,4.26
2022-12-04T01:34:17.293Z,4.19
2022-12-04T01:37:01.494Z,4.22
2022-12-04T01:39:44.357Z,4.27
2022-12-04T01:42:28.119Z,4.20
2022-12-04T01:45:35.639Z,4.29
2022-12-04T01:48:27.559Z,4.34
2022-12-04T01:51:17.829Z,4.31
2022-12-04T01:54:06.069Z,4.34
2022-12-04T01:56:53.605Z,4.44
2022-12-04T01:59:41.120Z,4.36
2022-12-04T02:02:28.550Z,4.39
2022-12-04T02:05:14.769Z,4.36
2022-12-04T02:08:01.423Z,4.42
2022-12-04T02:10:56.669Z,4.44
2022-12-04T02:13:46.971Z,4.46
2022-12-04T02:16:37.875Z,4.51
2022-12-04T02:19:43.906Z,4.49
2022-12-04T02:22:42.676Z,4.50
2022-12-04T02:25:31.106Z,4.53
2022-12-04T02:28:24.381Z,4.49
2022-12-04T02:31:13.399Z,4.45
2022-12-04T02:34:02.566Z,4.33
2022-12-04T02:36:51.933Z,4.38
2022-12-04T02:39:41.275Z,4.35
2022-12-04T02:42:34.046Z,4.33
2022-12-04T02:45:22.760Z,4.28
2022-12-04T02:48:08.718Z,4.31
2022-12-04T02:50:57.190Z,4.26
2022-12-04T02:53:45.936Z,4.25
2022-12-04T02:56:33.341Z,4.26
2022-12-04T02:59:20.266Z,4.32
2022-12-04T03:02:10.546Z,4.34
2022-12-04T03:04:57.376Z,4.35
2022-12-04T03:07:45.975Z,4.34
2022-12-04T03:10:33.885Z,4.37
2022-12-04T03:13:21.396Z,4.33
2022-12-04T03:16:11.432Z,4.25
2022-12-04T03:19:00.016Z,4.32
2022-12-04T03:21:48.970Z,4.28
2022-12-04T03:24:35.501Z,4.24
2022-12-04T03:27:27.144Z,4.18
2022-12-04T03:30:12.618Z,4.20
2022-12-04T03:33:02.412Z,4.18
2022-12-04T03:35:50.612Z,4.18
2022-12-04T03:38:38.906Z,4.15
2022-12-04T03:41:28.174Z,4.15
2022-12-04T03:44:17.232Z,4.17
2022-12-04T03:47:05.230Z,4.25
2022-12-04T03:49:55.016Z,4.29
2022-12-04T03:52:49.669Z,4.27
2022-12-04T03:55:39.937Z,4.33
2022-12-04T03:58:28.273Z,4.34
2022-12-04T04:01:14.389Z,4.47
2022-12-04T04:04:01.020Z,4.50
2022-12-04T04:06:49.967Z,4.50
2022-12-04T04:09:38.313Z,4.46
2022-12-04T04:12:23.584Z,4.55
2022-12-04T04:15:28.547Z,4.64
2022-12-04T04:18:28.732Z,4.68
2022-12-04T04:21:31.682Z,4.76
2022-12-04T04:24:28.972Z,4.88
2022-12-04T04:27:13.591Z,4.98
2022-12-04T04:29:56.535Z,5.07
2022-12-04T04:32:43.902Z,5.12
2022-12-04T04:35:38.185Z,4.98
2022-12-04T04:38:27.263Z,5.09
2022-12-04T04:41:17.267Z,5.07
2022-12-04T04:44:10.753Z,5.13
2022-12-04T04:46:58.668Z,5.14
2022-12-04T04:49:43.173Z,5.20
2022-12-04T04:52:26.528Z,5.24
2022-12-04T04:55:10.534Z,5.17
2022-12-04T04:57:53.374Z,5.24
2022-12-04T05:00:38.451Z,5.26
2022-12-04T05:03:21.308Z,5.24
2022-12-04T05:06:04.660Z,5.31
2022-12-04T05:08:49.283Z,5.23
2022-12-04T05:11:31.962Z,5.26
2022-12-04T05:14:14.810Z,5.36
2022-12-04T05:17:01.844Z,5.33
2022-12-04T05:19:57.885Z,5.27
2022-12-04T05:22:40.940Z,5.37
2022-12-04T05:25:23.834Z,5.35
2022-12-04T05:28:06.909Z,5.29
2022-12-04T05:30:56.103Z,5.35
2022-12-04T05:33:40.396Z,5.36
2022-12-04T05:36:23.261Z,5.40
2022-12-04T05:39:06.167Z,5.60
2022-12-04T05:41:49.050Z,5.63
2022-12-04T05:44:31.908Z,5.70
2022-12-04T05:47:14.749Z,5.68
2022-12-04T05:49:59.150Z,5.62
2022-12-04T05:52:42.041Z,5.63
2022-12-04T05:55:24.851Z,5.58
2022-12-04T05:58:07.786Z,5.52
2022-12-04T06:00:50.681Z,5.51
2022-12-04T06:03:33.592Z,5.48
2022-12-04T06:06:22.284Z,5.44
2022-12-04T06:09:06.950Z,5.52
2022-12-04T06:11:49.781Z,5.54
2022-12-04T06:14:39.157Z,5.56
2022-12-04T06:17:22.556Z,5.54
2022-12-04T06:20:11.230Z,5.56
2022-12-04T06:22:56.059Z,5.66
2022-12-04T06:25:38.941Z,5.54
2022-12-04T06:28:21.808Z,5.52
2022-12-04T06:31:06.215Z,5.50
2022-12-04T06:33:49.521Z,5.41
2022-12-04T06:36:32.612Z,5.39
2022-12-04T06:39:18.987Z,5.38
2022-12-04T06:42:02.028Z,5.47
2022-12-04T06:44:44.951Z,5.41
2022-12-04T06:47:27.798Z,5.49
2022-12-04T06:50:11.229Z,5.53
2022-12-04T06:52:54.057Z,5.56
2022-12-04T06:55:38.268Z,5.66
2022-12-04T06:58:21.105Z,5.67
2022-12-04T07:01:08.209Z,5.66
2022-12-04T07:03:52.036Z,5.64
2022-12-04T07:06:36.569Z,5.71
2022-12-04T07:09:19.820Z,5.69
2022-12-04T07:12:04.010Z,5.76
2022-12-04T07:14:46.862Z,5.75
2022-12-04T07:17:29.755Z,5.78
2022-12-04T07:20:13.571Z,5.72
2022-12-04T07:22:56.548Z,5.66
2022-12-04T07:25:40.971Z,5.63
2022-12-04T07:28:25.169Z,5.74
2022-12-04T07:31:09.389Z,5.76
2022-12-04T07:33:53.957Z,5.84
2022-12-04T07:36:36.890Z,5.86
2022-12-04T07:39:19.743Z,5.93
2022-12-04T07:42:02.692Z,5.93
2022-12-04T07:44:48.622Z,6.02
2022-12-04T07:47:31.457Z,6.02
2022-12-04T07:50:14.311Z,6.12
2022-12-04T07:52:57.141Z,6.25
2022-12-04T07:55:40.150Z,6.33
2022-12-04T07:58:22.952Z,6.42
2022-12-04T08:01:09.122Z,6.45
2022-12-04T08:03:53.501Z,6.52
2022-12-04T08:06:36.442Z,6.57
2022-12-04T08:09:19.285Z,6.67
2022-12-04T08:12:02.082Z,6.76
2022-12-04T08:14:44.969Z,6.81
2022-12-04T08:17:29.431Z,6.87
2022-12-04T08:20:13.205Z,6.96
2022-12-04T08:22:56.067Z,7.07
2022-12-04T08:25:40.231Z,7.13
2022-12-04T08:28:23.070Z,7.25
2022-12-04T08:31:07.472Z,7.32
2022-12-04T08:33:53.434Z,7.38
2022-12-04T08:36:36.609Z,7.40
2022-12-04T08:39:19.552Z,7.50
2022-12-04T08:42:02.389Z,7.63
2022-12-04T08:44:45.232Z,7.71
2022-12-04T08:47:28.044Z,7.77
2022-12-04T08:50:12.848Z,7.83
2022-12-04T08:52:55.707Z,7.87
2022-12-04T08:55:38.580Z,7.93
2022-12-04T08:58:21.431Z,7.98
2022-12-04T09:01:08.403Z,8.02
2022-12-04T09:03:51.289Z,8.08
2022-12-04T09:06:35.484Z,8.15
2022-12-04T09:09:18.342Z,8.24
2022-12-04T09:12:01.178Z,8.32
2022-12-04T09:14:43.993Z,8.45
2022-12-04T09:17:26.859Z,8.50
2022-12-04T09:20:10.803Z,8.60
2022-12-04T09:23:04.145Z,8.71
2022-12-04T09:25:47.766Z,8.85
2022-12-04T09:28:30.622Z,8.92
2022-12-04T09:31:13.810Z,9.02
2022-12-04T09:33:59.050Z,9.12
2022-12-04T09:36:41.890Z,9.19
2022-12-04T09:39:26.314Z,9.23
2022-12-04T09:42:24.931Z,9.33
2022-12-04T09:45:13.018Z,9.42
2022-12-04T09:47:59.043Z,9.49
2022-12-04T09:50:44.475Z,9.52
2022-12-04T09:53:30.930Z,9.58
2022-12-04T09:56:19.824Z,9.56
2022-12-04T09:59:12.544Z,9.52
2022-12-04T10:01:59.855Z,9.66
2022-12-04T10:04:42.754Z,9.75
2022-12-04T10:07:29.967Z,9.87
2022-12-04T10:10:20.442Z,9.85
2022-12-04T10:13:16.533Z,10.01
2022-12-04T10:16:11.058Z,10.00
2022-12-04T10:19:04.285Z,9.90
2022-12-04T10:22:01.258Z,9.88
2022-12-04T10:24:49.119Z,9.83
2022-12-04T10:27:35.618Z,9.85
2022-12-04T10:30:23.823Z,9.91
2022-12-04T10:33:17.758Z,9.84
2022-12-04T10:36:02.488Z,9.75
2022-12-04T10:38:47.307Z,9.68
2022-12-04T10:41:37.499Z,9.61
2022-12-04T10:44:21.871Z,9.54
2022-12-04T10:47:06.499Z,9.54
2022-12-04T10:49:49.278Z,9.54
2022-12-04T10:52:32.185Z,9.53
2022-12-04T10:55:15.878Z,9.50
2022-12-04T10:57:58.863Z,9.55
2022-12-04T11:00:41.752Z,9.60
2022-12-04T11:03:29.414Z,9.64
2022-12-04T11:06:15.118Z,9.82
2022-12-04T11:08:59.505Z,9.93
2022-12-04T11:11:42.413Z,9.88
2022-12-04T11:14:25.526Z,9.78
2022-12-04T11:17:08.548Z,9.82
2022-12-04T11:20:00.756Z,9.87
2022-12-04T11:22:52.353Z,10.00
2022-12-04T11:25:39.501Z,10.02
2022-12-04T11:28:41.335Z,10.07
2022-12-04T11:31:25.576Z,10.18
2022-12-04T11:34:10.873Z,10.28
2022-12-04T11:36:57.591Z,10.42
2022-12-04T11:39:42.303Z,10.46
2022-12-04T11:42:25.548Z,10.45
2022-12-04T11:45:21.926Z,10.49
2022-12-04T11:48:14.127Z,10.51
2022-12-04T11:51:08.533Z,10.48
2022-12-04T11:54:00.245Z,10.48
2022-12-04T11:56:48.189Z,10.46
2022-12-04T11:59:49.725Z,10.32
2022-12-04T12:02:45.389Z,10.34
2022-12-04T12:06:00.280Z,10.39
2022-12-04T12:08:59.443Z,10.36
2022-12-04T12:11:50.586Z,10.36
2022-12-04T12:14:41.081Z,10.32
2022-12-04T12:17:33.377Z,10.37
2022-12-04T12:20:22.566Z,10.27
2022-12-04T12:23:22.393Z,10.34
2022-12-04T12:26:12.383Z,10.38
2022-12-04T12:29:22.651Z,10.38
2022-12-04T12:32:25.978Z,10.43
2022-12-04T12:35:21.263Z,10.43
2022-12-04T12:38:07.787Z,10.43
2022-12-04T12:40:56.651Z,10.39
2022-12-04T12:43:42.192Z,10.37
2022-12-04T12:46:32.404Z,10.29
2022-12-04T12:49:21.242Z,10.34
2022-12-04T12:52:08.416Z,10.36
2022-12-04T12:54:57.291Z,10.44
2022-12-04T12:57:44.062Z,10.48
2022-12-04T13:00:31.425Z,10.46
2022-12-04T13:03:27.140Z,10.37
2022-12-04T13:06:15.672Z,10.22
2022-12-04T13:09:07.360Z,10.19
2022-12-04T13:11:52.631Z,10.21
2022-12-04T13:14:35.636Z,10.09
2022-12-04T13:17:26.599Z,10.00
2022-12-04T13:20:18.173Z,9.90
2022-12-04T13:23:16.096Z,9.88
2022-12-04T13:26:07.755Z,9.83
2022-12-04T13:28:58.469Z,9.89
2022-12-04T13:31:53.132Z,9.79
2022-12-04T13:34:50.144Z,9.67
2022-12-04T13:37:49.481Z,9.63
2022-12-04T13:40:36.873Z,9.56
2022-12-04T13:43:26.773Z,9.53
2022-12-04T13:46:26.806Z,9.43
2022-12-04T13:49:25.126Z,9.41
2022-12-04T13:52:23.509Z,9.39
2022-12-04T13:55:23.868Z,9.36
2022-12-04T13:58:27.351Z,9.44
2022-12-04T14:01:26.387Z,9.39
2022-12-04T14:04:23.571Z,9.32
2022-12-04T14:07:06.607Z,9.27
2022-12-04T14:09:54.389Z,9.26
2022-12-04T14:12:40.729Z,9.33
2022-12-04T14:15:26.280Z,9.18
2022-12-04T14:18:21.928Z,9.18
2022-12-04T14:21:06.772Z,9.12
2022-12-04T14:23:51.122Z,9.08
2022-12-04T14:27:03.569Z,9.09
2022-12-04T14:29:47.242Z,9.05
2022-12-04T14:32:34.693Z,8.90
2022-12-04T14:35:21.280Z,8.87
2022-12-04T14:38:06.871Z,8.85
2022-12-04T14:40:52.508Z,8.79
2022-12-04T14:43:41.072Z,8.79
2022-12-04T14:46:29.261Z,8.74
2022-12-04T14:49:24.699Z,8.65
2022-12-04T14:52:16.072Z,8.65
2022-12-04T14:55:08.076Z,8.62
2022-12-04T14:57:56.546Z,8.60
2022-12-04T15:00:51.298Z,8.45
2022-12-04T15:03:37.978Z,8.58
2022-12-04T15:06:25.465Z,8.44
2022-12-04T15:09:36.035Z,8.33
2022-12-04T15:12:36.440Z,8.45
2022-12-04T15:15:25.128Z,8.51
2022-12-04T15:18:15.804Z,8.51
2022-12-04T15:21:01.453Z,8.48
2022-12-04T15:23:44.737Z,8.47
2022-12-04T15:26:28.272Z,8.53
2022-12-04T15:29:18.802Z,8.48
2022-12-04T15:32:05.488Z,8.58
2022-12-04T15:34:54.417Z,8.49
2022-12-04T15:37:37.868Z,8.58
2022-12-04T15:40:23.154Z,8.60
2022-12-04T15:43:17.304Z,8.60
2022-12-04T15:46:00.689Z,8.60
2022-12-04T15:48:47.719Z,8.56
2022-12-04T15:51:32.564Z,8.46
2022-12-04T15:54:22.280Z,8.28
2022-12-04T15:57:07.771Z,8.31
2022-12-04T15:59:51.823Z,8.18
2022-12-04T16:02:40.623Z,8.18
2022-12-04T16:05:35.481Z,8.19
2022-12-04T16:08:26.828Z,8.13
2022-12-04T16:11:28.514Z,8.17
2022-12-04T16:14:19.177Z,8.21
2022-12-04T16:17:06.287Z,8.23
2022-12-04T16:19:49.569Z,8.10
2022-12-04T16:22:32.562Z,8.10
2022-12-04T16:25:17.891Z,8.11
2022-12-04T16:28:01.697Z,8.14
2022-12-04T16:30:44.637Z,8.23
2022-12-04T16:33:27.511Z,8.20
2022-12-04T16:36:11.649Z,8.18
2022-12-04T16:38:54.489Z,8.15
2022-12-04T16:41:38.769Z,8.03
2022-12-04T16:44:21.631Z,8.16
2022-12-04T16:47:04.630Z,8.11
2022-12-04T16:49:50.259Z,8.17
2022-12-04T16:52:33.123Z,8.11
2022-12-04T16:55:20.560Z,8.15
2022-12-04T16:58:05.418Z,8.10
2022-12-04T17:00:54.433Z,8.02
2022-12-04T17:03:37.382Z,8.12
2022-12-04T17:06:20.390Z,8.10
2022-12-04T17:09:03.244Z,8.01
2022-12-04T17:11:46.667Z,7.95
2022-12-04T17:14:30.908Z,7.91
2022-12-04T17:17:13.771Z,7.90
2022-12-04T17:19:56.613Z,7.85
2022-12-04T17:22:39.554Z,7.73
2022-12-04T17:25:22.478Z,7.67
2022-12-04T17:28:05.607Z,7.66
2022-12-04T17:30:49.835Z,7.67
2022-12-04T17:33:33.302Z,7.72
2022-12-04T17:36:18.970Z,7.74
2022-12-04T17:39:02.594Z,7.73
2022-12-04T17:41:45.473Z,7.67
2022-12-04T17:44:28.426Z,7.68
2022-12-04T17:47:13.295Z,7.60
2022-12-04T17:49:56.158Z,7.55
2022-12-04T17:52:39.060Z,7.51
2022-12-04T17:55:21.928Z,7.47
2022-12-04T17:58:04.798Z,7.41
2022-12-04T18:00:47.714Z,7.50
2022-12-04T18:03:32.112Z,7.53
2022-12-04T18:06:17.753Z,7.53
2022-12-04T18:09:00.659Z,7.53
2022-12-04T18:11:45.896Z,7.54
2022-12-04T18:14:29.863Z,7.59
2022-12-04T18:17:12.703Z,7.64
2022-12-04T18:20:02.673Z,7.57
2022-12-04T18:22:47.324Z,7.62
2022-12-04T18:25:30.194Z,7.64
2022-12-04T18:28:13.052Z,7.67
2022-12-04T18:30:55.953Z,7.67
2022-12-04T18:33:40.687Z,7.65
2022-12-04T18:36:26.162Z,7.59
2022-12-04T18:39:09.841Z,7.57
2022-12-04T18:41:55.978Z,7.57
2022-12-04T18:44:38.902Z,7.50
2022-12-04T18:47:21.733Z,7.51
2022-12-04T18:50:04.746Z,7.37
2022-12-04T18:52:54.955Z,7.36
2022-12-04T18:55:40.722Z,7.29
2022-12-04T18:58:23.874Z,7.32
2022-12-04T19:01:07.683Z,7.36
2022-12-04T19:03:50.607Z,7.30
2022-12-04T19:06:35.609Z,7.26
2022-12-04T19:09:35.393Z,7.26
2022-12-04T19:12:25.235Z,7.21
2022-12-04T19:15:08.794Z,7.14
2022-12-04T19:17:51.671Z,7.14
2022-12-04T19:20:34.526Z,7.13
2022-12-04T19:23:17.426Z,7.15
2022-12-04T19:26:02.546Z,7.14
2022-12-04T19:28:45.435Z,7.14
2022-12-04T19:31:30.014Z,7.11
2022-12-04T19:34:12.905Z,7.08
2022-12-04T19:36:56.037Z,7.06
2022-12-04T19:39:39.077Z,7.07
2022-12-04T19:42:23.358Z,7.03
2022-12-04T19:45:06.929Z,6.93
2022-12-04T19:47:49.789Z,6.89
2022-12-04T19:50:33.610Z,6.90
2022-12-04T19:53:16.693Z,6.95
2022-12-04T19:56:03.586Z,6.87
2022-12-04T19:58:48.441Z,6.90
2022-12-04T20:01:32.386Z,6.88
2022-12-04T20:04:15.627Z,6.86
2022-12-04T20:06:58.755Z,6.87
2022-12-04T20:09:42.526Z,6.80
2022-12-04T20:12:27.859Z,6.75
2022-12-04T20:15:12.175Z,6.69
2022-12-04T20:17:55.114Z,6.68
2022-12-04T20:20:37.988Z,6.65
2022-12-04T20:23:20.844Z,6.57
2022-12-04T20:26:05.067Z,6.56
2022-12-04T20:28:48.244Z,6.57
2022-12-04T20:31:34.946Z,6.53
2022-12-04T20:34:19.738Z,6.38
2022-12-04T20:37:02.581Z,6.43
2022-12-04T20:39:45.555Z,6.42
2022-12-04T20:42:33.278Z,6.47
2022-12-04T20:45:16.617Z,6.42
2022-12-04T20:48:00.820Z,6.41
2022-12-04T20:50:45.989Z,6.33
2022-12-04T20:53:30.245Z,6.37
2022-12-04T20:56:13.116Z,6.33
2022-12-04T20:58:57.545Z,6.32
2022-12-04T21:01:40.833Z,6.21
2022-12-04T21:04:25.254Z,6.31
2022-12-04T21:07:08.388Z,6.36
2022-12-04T21:09:51.301Z,6.40
2022-12-04T21:12:52.259Z,6.44
2022-12-04T21:15:54.118Z,6.45
2022-12-04T21:18:37.840Z,6.43
2022-12-04T21:21:22.191Z,6.39
2022-12-04T21:24:06.335Z,6.38
2022-12-04T21:26:49.528Z,6.37
2022-12-04T21:29:32.581Z,6.39
2022-12-04T21:32:15.501Z,6.40
2022-12-04T21:34:58.428Z,6.42
2022-12-04T21:37:42.656Z,6.43
2022-12-04T21:40:25.485Z,6.41
2022-12-04T21:43:08.352Z,6.39
2022-12-04T21:45:58.141Z,6.34
2022-12-04T21:48:41.147Z,6.28
2022-12-04T21:51:48.726Z,6.26
2022-12-04T21:54:28.817Z,6.21
2022-12-04T21:57:12.029Z,6.19
2022-12-04T21:59:55.230Z,6.20
2022-12-04T22:02:39.952Z,6.20
2022-12-04T22:05:22.708Z,6.21
2022-12-04T22:08:07.121Z,6.22
2022-12-04T22:10:51.367Z,6.20
2022-12-04T22:13:34.601Z,6.21
2022-12-04T22:16:19.831Z,6.20
2022-12-04T22:19:02.741Z,6.18
2022-12-04T22:21:45.644Z,6.17
2022-12-04T22:24:28.557Z,6.15
2022-12-04T22:27:14.971Z,6.12
2022-12-04T22:29:57.868Z,6.11
2022-12-04T22:32:40.800Z,6.06
2022-12-04T22:35:23.909Z,6.02
2022-12-04T22:38:06.783Z,5.97
2022-12-04T22:40:49.862Z,5.90
2022-12-04T22:43:40.550Z,5.85
2022-12-04T22:46:23.860Z,5.80
2022-12-04T22:49:07.291Z,5.72
2022-12-04T22:51:50.149Z,5.64
2022-12-04T22:54:33.122Z,5.60
2022-12-04T22:57:16.456Z,5.54
2022-12-04T23:00:00.648Z,5.49
2022-12-04T23:02:43.579Z,5.47
2022-12-04T23:05:26.564Z,5.45
2022-12-04T23:08:10.009Z,5.43
2022-12-04T23:10:52.971Z,5.40
2022-12-04T23:13:36.316Z,5.33
2022-12-04T23:16:21.203Z,5.28
2022-12-04T23:19:05.311Z,5.24
2022-12-04T23:21:53.555Z,5.19
2022-12-04T23:24:41.370Z,5.09
2022-12-04T23:27:24.053Z,4.95
2022-12-04T23:30:08.245Z,4.88
2022-12-04T23:32:52.656Z,4.81
2022-12-04T23:35:35.480Z,4.72
2022-12-04T23:38:18.497Z,4.66
2022-12-04T23:41:02.105Z,4.63
2022-12-04T23:43:45.811Z,4.56
2022-12-04T23:46:32.289Z,4.50
2022-12-04T23:49:16.631Z,4.39
2022-12-04T23:51:59.498Z,4.28
2022-12-04T23:54:42.360Z,4.20
2022-12-04T23:57:25.206Z,4.16
